sensor_id;sensor_type;location;lat;lon;timestamp;pressure;altitude;pressure_sealevel;temperature;humidity
47280;BME280;34064;44.942;0.008;2024-02-28T00:01:28;99578.66;;;10.25;60.24
47280;BME280;34064;44.942;0.008;2024-02-28T00:03:54;99576.00;;;10.25;60.09
47280;BME280;34064;44.942;0.008;2024-02-28T00:06:20;99578.94;;;10.21;60.21
47280;BME280;34064;44.942;0.008;2024-02-28T00:08:47;99582.09;;;10.13;60.72
47280;BME280;34064;44.942;0.008;2024-02-28T00:11:13;99594.50;;;10.12;59.97
47280;BME280;34064;44.942;0.008;2024-02-28T00:13:39;99589.97;;;10.14;59.91
47280;BME280;34064;44.942;0.008;2024-02-28T00:16:06;99590.25;;;10.10;59.81
47280;BME280;34064;44.942;0.008;2024-02-28T00:18:32;99600.09;;;10.08;59.88
47280;BME280;34064;44.942;0.008;2024-02-28T00:20:59;99590.44;;;10.07;60.16
47280;BME280;34064;44.942;0.008;2024-02-28T00:23:25;99594.06;;;10.06;60.24
47280;BME280;34064;44.942;0.008;2024-02-28T00:25:52;99594.34;;;10.01;60.02
47280;BME280;34064;44.942;0.008;2024-02-28T00:28:18;99600.88;;;9.95;60.47
47280;BME280;34064;44.942;0.008;2024-02-28T00:30:45;99596.69;;;9.91;60.74
47280;BME280;34064;44.942;0.008;2024-02-28T00:33:11;99585.97;;;9.93;60.74
47280;BME280;34064;44.942;0.008;2024-02-28T00:35:39;99596.88;;;9.88;60.21
47280;BME280;34064;44.942;0.008;2024-02-28T00:38:05;99595.94;;;9.89;60.64
47280;BME280;34064;44.942;0.008;2024-02-28T00:40:32;99602.00;;;9.77;60.56
47280;BME280;34064;44.942;0.008;2024-02-28T00:42:58;99609.19;;;9.75;60.62
47280;BME280;34064;44.942;0.008;2024-02-28T00:45:25;99609.47;;;9.70;61.14
47280;BME280;34064;44.942;0.008;2024-02-28T00:47:51;99598.59;;;9.75;60.56
47280;BME280;34064;44.942;0.008;2024-02-28T00:50:17;99601.59;;;9.68;60.53
47280;BME280;34064;44.942;0.008;2024-02-28T00:52:44;99600.84;;;9.66;60.75
47280;BME280;34064;44.942;0.008;2024-02-28T00:55:10;99602.91;;;9.61;61.03
47280;BME280;34064;44.942;0.008;2024-02-28T00:57:36;99600.84;;;9.66;60.38
47280;BME280;34064;44.942;0.008;2024-02-28T01:00:03;99599.88;;;9.53;60.95
47280;BME280;34064;44.942;0.008;2024-02-28T01:02:32;99599.03;;;9.52;60.97
47280;BME280;34064;44.942;0.008;2024-02-28T01:04:58;99600.25;;;9.47;61.15
47280;BME280;34064;44.942;0.008;2024-02-28T01:07:25;99612.06;;;9.41;61.24
47280;BME280;34064;44.942;0.008;2024-02-28T01:09:51;99609.25;;;9.44;60.93
47280;BME280;34064;44.942;0.008;2024-02-28T01:12:17;99606.94;;;9.38;61.04
47280;BME280;34064;44.942;0.008;2024-02-28T01:14:44;99609.50;;;9.40;60.74
47280;BME280;34064;44.942;0.008;2024-02-28T01:17:10;99601.72;;;9.36;60.99
47280;BME280;34064;44.942;0.008;2024-02-28T01:19:36;99602.56;;;9.37;60.59
47280;BME280;34064;44.942;0.008;2024-02-28T01:22:03;99608.13;;;9.32;60.70
47280;BME280;34064;44.942;0.008;2024-02-28T01:24:29;99609.06;;;9.31;60.31
47280;BME280;34064;44.942;0.008;2024-02-28T01:26:55;99614.75;;;9.25;60.73
47280;BME280;34064;44.942;0.008;2024-02-28T01:29:22;99614.91;;;9.22;61.05
47280;BME280;34064;44.942;0.008;2024-02-28T01:31:48;99620.22;;;9.22;61.19
47280;BME280;34064;44.942;0.008;2024-02-28T01:34:14;99623.25;;;9.16;61.25
47280;BME280;34064;44.942;0.008;2024-02-28T01:36:41;99630.41;;;9.14;61.05
47280;BME280;34064;44.942;0.008;2024-02-28T01:39:07;99631.44;;;9.11;61.26
47280;BME280;34064;44.942;0.008;2024-02-28T01:41:34;99632.81;;;9.02;61.35
47280;BME280;34064;44.942;0.008;2024-02-28T01:44:00;99631.03;;;9.03;61.01
47280;BME280;34064;44.942;0.008;2024-02-28T01:46:28;99631.97;;;9.02;61.17
47280;BME280;34064;44.942;0.008;2024-02-28T01:48:55;99636.78;;;8.95;61.22
47280;BME280;34064;44.942;0.008;2024-02-28T01:51:25;99640.34;;;8.94;61.16
47280;BME280;34064;44.942;0.008;2024-02-28T01:53:53;99632.25;;;8.97;61.09
47280;BME280;34064;44.942;0.008;2024-02-28T01:56:22;99633.69;;;8.87;61.52
47280;BME280;34064;44.942;0.008;2024-02-28T01:58:49;99643.47;;;8.86;61.10
47280;BME280;34064;44.942;0.008;2024-02-28T02:01:17;99635.78;;;8.82;61.31
47280;BME280;34064;44.942;0.008;2024-02-28T02:03:44;99636.97;;;8.76;61.49
47280;BME280;34064;44.942;0.008;2024-02-28T02:06:10;99643.19;;;8.75;61.25
47280;BME280;34064;44.942;0.008;2024-02-28T02:08:37;99639.88;;;8.71;61.26
47280;BME280;34064;44.942;0.008;2024-02-28T02:11:05;99642.78;;;8.67;61.50
47280;BME280;34064;44.942;0.008;2024-02-28T02:13:34;99636.78;;;8.63;61.45
47280;BME280;34064;44.942;0.008;2024-02-28T02:16:02;99635.09;;;8.62;61.40
47280;BME280;34064;44.942;0.008;2024-02-28T02:18:28;99634.47;;;8.57;61.76
47280;BME280;34064;44.942;0.008;2024-02-28T02:21:02;99634.47;;;8.57;62.05
47280;BME280;34064;44.942;0.008;2024-02-28T02:23:31;99632.75;;;8.56;61.96
47280;BME280;34064;44.942;0.008;2024-02-28T02:25:58;99637.31;;;8.54;61.87
47280;BME280;34064;44.942;0.008;2024-02-28T02:28:24;99635.41;;;8.56;62.02
47280;BME280;34064;44.942;0.008;2024-02-28T02:30:50;99638.91;;;8.56;61.90
47280;BME280;34064;44.942;0.008;2024-02-28T02:33:17;99635.50;;;8.54;62.07
47280;BME280;34064;44.942;0.008;2024-02-28T02:35:44;99637.31;;;8.54;62.10
47280;BME280;34064;44.942;0.008;2024-02-28T02:38:10;99644.28;;;8.55;61.95
47280;BME280;34064;44.942;0.008;2024-02-28T02:40:36;99642.97;;;8.46;61.85
47280;BME280;34064;44.942;0.008;2024-02-28T02:43:03;99645.63;;;8.46;61.78
47280;BME280;34064;44.942;0.008;2024-02-28T02:45:29;99646.22;;;8.35;62.12
47280;BME280;34064;44.942;0.008;2024-02-28T02:47:56;99648.16;;;8.32;61.86
47280;BME280;34064;44.942;0.008;2024-02-28T02:50:22;99643.28;;;8.24;62.10
47280;BME280;34064;44.942;0.008;2024-02-28T02:52:48;99645.06;;;8.23;61.90
47280;BME280;34064;44.942;0.008;2024-02-28T02:55:15;99646.09;;;8.21;62.00
47280;BME280;34064;44.942;0.008;2024-02-28T02:57:41;99645.75;;;8.11;62.36
47280;BME280;34064;44.942;0.008;2024-02-28T03:00:09;99645.50;;;8.16;62.08
47280;BME280;34064;44.942;0.008;2024-02-28T03:02:36;99641.28;;;8.11;62.15
47280;BME280;34064;44.942;0.008;2024-02-28T03:05:06;99635.31;;;8.08;62.40
47280;BME280;34064;44.942;0.008;2024-02-28T03:07:33;99638.78;;;8.08;62.34
47280;BME280;34064;44.942;0.008;2024-02-28T03:09:59;99639.75;;;8.07;62.35
47280;BME280;34064;44.942;0.008;2024-02-28T03:12:26;99644.09;;;8.08;62.15
47280;BME280;34064;44.942;0.008;2024-02-28T03:14:52;99643.25;;;8.08;62.14
47280;BME280;34064;44.942;0.008;2024-02-28T03:17:18;99646.91;;;8.05;62.14
47280;BME280;34064;44.942;0.008;2024-02-28T03:19:45;99645.19;;;8.04;62.08
47280;BME280;34064;44.942;0.008;2024-02-28T03:22:11;99654.41;;;7.97;62.16
47280;BME280;34064;44.942;0.008;2024-02-28T03:24:37;99651.81;;;7.95;62.28
47280;BME280;34064;44.942;0.008;2024-02-28T03:27:04;99658.47;;;7.87;62.63
47280;BME280;34064;44.942;0.008;2024-02-28T03:29:30;99662.09;;;7.84;62.63
47280;BME280;34064;44.942;0.008;2024-02-28T03:31:58;99663.13;;;7.81;62.30
47280;BME280;34064;44.942;0.008;2024-02-28T03:34:24;99664.38;;;7.74;62.61
47280;BME280;34064;44.942;0.008;2024-02-28T03:36:51;99664.38;;;7.74;62.19
47280;BME280;34064;44.942;0.008;2024-02-28T03:39:17;99666.56;;;7.66;62.55
47280;BME280;34064;44.942;0.008;2024-02-28T03:41:44;99665.69;;;7.65;62.62
47280;BME280;34064;44.942;0.008;2024-02-28T03:44:10;99661.25;;;7.66;62.74
47280;BME280;34064;44.942;0.008;2024-02-28T03:46:36;99660.25;;;7.69;62.47
47280;BME280;34064;44.942;0.008;2024-02-28T03:49:03;99665.69;;;7.65;62.81
47280;BME280;34064;44.942;0.008;2024-02-28T03:51:29;99669.09;;;7.68;62.66
47280;BME280;34064;44.942;0.008;2024-02-28T03:53:55;99670.81;;;7.69;62.85
47280;BME280;34064;44.942;0.008;2024-02-28T03:56:23;99672.63;;;7.68;62.78
47280;BME280;34064;44.942;0.008;2024-02-28T03:58:50;99675.19;;;7.70;62.57
47280;BME280;34064;44.942;0.008;2024-02-28T04:01:17;99677.00;;;7.69;62.71
47280;BME280;34064;44.942;0.008;2024-02-28T04:03:43;99677.00;;;7.69;62.60
47280;BME280;34064;44.942;0.008;2024-02-28T04:06:10;99691.97;;;7.69;62.68
47280;BME280;34064;44.942;0.008;2024-02-28T04:08:37;99692.13;;;7.65;62.57
47280;BME280;34064;44.942;0.008;2024-02-28T04:11:04;99697.66;;;7.61;62.55
47280;BME280;34064;44.942;0.008;2024-02-28T04:13:30;99698.97;;;7.52;62.67
47280;BME280;34064;44.942;0.008;2024-02-28T04:15:56;99711.09;;;7.39;62.67
47280;BME280;34064;44.942;0.008;2024-02-28T04:18:23;99711.78;;;7.42;62.49
47280;BME280;34064;44.942;0.008;2024-02-28T04:20:49;99713.66;;;7.40;62.54
47280;BME280;34064;44.942;0.008;2024-02-28T04:23:16;99718.97;;;7.40;62.58
47280;BME280;34064;44.942;0.008;2024-02-28T04:25:43;99722.59;;;7.38;62.41
47280;BME280;34064;44.942;0.008;2024-02-28T04:28:09;99722.81;;;7.33;62.62
47280;BME280;34064;44.942;0.008;2024-02-28T04:30:36;99726.53;;;7.29;62.76
47280;BME280;34064;44.942;0.008;2024-02-28T04:33:02;99730.91;;;7.30;62.85
47280;BME280;34064;44.942;0.008;2024-02-28T04:35:28;99740.78;;;7.26;62.88
47280;BME280;34064;44.942;0.008;2024-02-28T04:37:55;99741.63;;;7.27;62.74
47280;BME280;34064;44.942;0.008;2024-02-28T04:40:21;99735.53;;;7.25;62.78
47280;BME280;34064;44.942;0.008;2024-02-28T04:42:47;99733.81;;;7.24;62.80
47280;BME280;34064;44.942;0.008;2024-02-28T04:45:14;99738.19;;;7.25;62.66
47280;BME280;34064;44.942;0.008;2024-02-28T04:47:40;99741.22;;;7.17;62.75
47280;BME280;34064;44.942;0.008;2024-02-28T04:50:06;99747.44;;;7.16;62.57
47280;BME280;34064;44.942;0.008;2024-02-28T04:52:33;99753.97;;;7.07;62.65
47280;BME280;34064;44.942;0.008;2024-02-28T04:55:00;99748.91;;;7.02;62.55
47280;BME280;34064;44.942;0.008;2024-02-28T04:57:26;99750.72;;;7.02;62.97
47280;BME280;34064;44.942;0.008;2024-02-28T04:59:53;99753.41;;;7.00;63.05
47280;BME280;34064;44.942;0.008;2024-02-28T05:02:19;99757.84;;;7.00;63.05
47280;BME280;34064;44.942;0.008;2024-02-28T05:04:48;99758.91;;;6.96;63.04
47280;BME280;34064;44.942;0.008;2024-02-28T05:07:15;99770.41;;;6.95;63.04
47280;BME280;34064;44.942;0.008;2024-02-28T05:09:41;99771.56;;;6.89;62.98
47280;BME280;34064;44.942;0.008;2024-02-28T05:12:07;99768.97;;;6.87;62.82
47280;BME280;34064;44.942;0.008;2024-02-28T05:14:34;99768.06;;;6.89;62.89
47280;BME280;34064;44.942;0.008;2024-02-28T05:17:00;99759.19;;;6.90;62.87
47280;BME280;34064;44.942;0.008;2024-02-28T05:19:27;99752.00;;;6.93;63.04
47280;BME280;34064;44.942;0.008;2024-02-28T05:21:53;99763.44;;;6.94;63.12
47280;BME280;34064;44.942;0.008;2024-02-28T05:24:19;99772.28;;;6.93;62.80
47280;BME280;34064;44.942;0.008;2024-02-28T05:26:46;99773.34;;;6.89;62.97
47280;BME280;34064;44.942;0.008;2024-02-28T05:29:12;99774.75;;;6.77;62.92
47280;BME280;34064;44.942;0.008;2024-02-28T05:31:38;99779.16;;;6.76;62.93
47280;BME280;34064;44.942;0.008;2024-02-28T05:34:05;99789.81;;;6.75;62.87
47280;BME280;34064;44.942;0.008;2024-02-28T05:36:31;99797.94;;;6.70;62.85
47280;BME280;34064;44.942;0.008;2024-02-28T05:38:59;99797.16;;;6.68;63.02
47280;BME280;34064;44.942;0.008;2024-02-28T05:41:27;99795.50;;;6.65;62.90
47280;BME280;34064;44.942;0.008;2024-02-28T05:43:53;99793.16;;;6.59;62.94
47280;BME280;34064;44.942;0.008;2024-02-28T05:46:20;99794.91;;;6.59;62.93
47280;BME280;34064;44.942;0.008;2024-02-28T05:48:48;99794.13;;;6.56;62.92
47280;BME280;34064;44.942;0.008;2024-02-28T05:51:15;99792.44;;;6.55;63.08
47280;BME280;34064;44.942;0.008;2024-02-28T05:53:41;99806.59;;;6.53;63.14
47280;BME280;34064;44.942;0.008;2024-02-28T05:56:10;99804.97;;;6.50;63.10
47280;BME280;34064;44.942;0.008;2024-02-28T05:58:43;99805.03;;;6.49;63.13
47280;BME280;34064;44.942;0.008;2024-02-28T06:01:10;99806.75;;;6.50;63.33
47280;BME280;34064;44.942;0.008;2024-02-28T06:03:37;99808.41;;;6.52;63.28
47280;BME280;34064;44.942;0.008;2024-02-28T06:06:04;99804.97;;;6.50;63.18
47280;BME280;34064;44.942;0.008;2024-02-28T06:08:37;99802.59;;;6.44;63.16
47280;BME280;34064;44.942;0.008;2024-02-28T06:11:03;99800.06;;;6.41;63.23
47280;BME280;34064;44.942;0.008;2024-02-28T06:13:29;99798.31;;;6.42;63.11
47280;BME280;34064;44.942;0.008;2024-02-28T06:15:56;99794.72;;;6.43;63.27
47280;BME280;34064;44.942;0.008;2024-02-28T06:18:25;99794.59;;;6.46;63.10
47280;BME280;34064;44.942;0.008;2024-02-28T06:20:53;99802.59;;;6.44;63.18
47280;BME280;34064;44.942;0.008;2024-02-28T06:23:21;99810.63;;;6.41;63.18
47280;BME280;34064;44.942;0.008;2024-02-28T06:25:47;99818.75;;;6.36;62.95
47280;BME280;34064;44.942;0.008;2024-02-28T06:28:14;99824.22;;;6.32;62.95
47280;BME280;34064;44.942;0.008;2024-02-28T06:30:42;99833.53;;;6.20;63.03
47280;BME280;34064;44.942;0.008;2024-02-28T06:33:08;99832.81;;;6.16;63.03
47280;BME280;34064;44.942;0.008;2024-02-28T06:35:35;99835.56;;;6.13;63.15
47280;BME280;34064;44.942;0.008;2024-02-28T06:38:02;99843.66;;;6.08;62.99
47280;BME280;34064;44.942;0.008;2024-02-28T06:40:28;99842.88;;;6.06;62.95
47280;BME280;34064;44.942;0.008;2024-02-28T06:42:55;99852.69;;;6.03;63.04
47280;BME280;34064;44.942;0.008;2024-02-28T06:45:21;99857.06;;;6.04;63.23
47280;BME280;34064;44.942;0.008;2024-02-28T06:47:48;99851.66;;;6.07;63.24
47280;BME280;34064;44.942;0.008;2024-02-28T06:50:14;99846.22;;;6.10;63.29
47280;BME280;34064;44.942;0.008;2024-02-28T06:52:42;99841.84;;;6.11;63.48
47280;BME280;34064;44.942;0.008;2024-02-28T06:55:08;99847.94;;;6.11;63.24
47280;BME280;34064;44.942;0.008;2024-02-28T06:57:41;99853.38;;;6.08;63.33
47280;BME280;34064;44.942;0.008;2024-02-28T07:00:09;99868.16;;;6.12;63.15
47280;BME280;34064;44.942;0.008;2024-02-28T07:02:36;99873.38;;;6.14;63.34
47280;BME280;34064;44.942;0.008;2024-02-28T07:05:03;99869.66;;;6.18;63.39
47280;BME280;34064;44.942;0.008;2024-02-28T07:07:33;99866.84;;;6.22;63.07
47280;BME280;34064;44.942;0.008;2024-02-28T07:10:02;99877.28;;;6.26;63.26
47280;BME280;34064;44.942;0.008;2024-02-28T07:12:28;99873.66;;;6.28;63.13
47280;BME280;34064;44.942;0.008;2024-02-28T07:14:54;99873.84;;;6.23;62.97
47280;BME280;34064;44.942;0.008;2024-02-28T07:17:21;99881.09;;;6.18;63.27
47280;BME280;34064;44.942;0.008;2024-02-28T07:19:48;99876.75;;;6.17;63.39
47280;BME280;34064;44.942;0.008;2024-02-28T07:22:14;99892.44;;;6.20;63.22
47280;BME280;34064;44.942;0.008;2024-02-28T07:24:41;99898.63;;;6.19;63.13
47280;BME280;34064;44.942;0.008;2024-02-28T07:27:07;99902.97;;;6.20;63.29
47280;BME280;34064;44.942;0.008;2024-02-28T07:29:34;99902.06;;;6.21;63.71
47280;BME280;34064;44.942;0.008;2024-02-28T07:32:00;99902.59;;;6.30;63.38
47280;BME280;34064;44.942;0.008;2024-02-28T07:34:28;99896.22;;;6.35;63.34
47280;BME280;34064;44.942;0.008;2024-02-28T07:36:54;99897.94;;;6.36;63.57
47280;BME280;34064;44.942;0.008;2024-02-28T07:39:21;99891.47;;;6.44;63.30
47280;BME280;34064;44.942;0.008;2024-02-28T07:41:47;99894.72;;;6.50;63.25
47280;BME280;34064;44.942;0.008;2024-02-28T07:44:13;99880.47;;;6.54;63.27
47280;BME280;34064;44.942;0.008;2024-02-28T07:46:41;99878.44;;;6.61;63.13
47280;BME280;34064;44.942;0.008;2024-02-28T07:49:08;99879.88;;;6.68;63.05
47280;BME280;34064;44.942;0.008;2024-02-28T07:51:35;99873.59;;;6.71;63.12
47280;BME280;34064;44.942;0.008;2024-02-28T07:54:01;99867.06;;;6.80;62.95
47280;BME280;34064;44.942;0.008;2024-02-28T07:56:28;99874.63;;;6.87;62.96
47280;BME280;34064;44.942;0.008;2024-02-28T07:58:55;99870.78;;;6.95;62.93
47280;BME280;34064;44.942;0.008;2024-02-28T08:01:21;99866.97;;;7.02;62.91
47280;BME280;34064;44.942;0.008;2024-02-28T08:03:48;99867.59;;;7.07;62.78
47280;BME280;34064;44.942;0.008;2024-02-28T08:06:15;99871.69;;;7.14;62.77
47280;BME280;34064;44.942;0.008;2024-02-28T08:08:44;99874.81;;;7.23;62.72
47280;BME280;34064;44.942;0.008;2024-02-28T08:11:12;99875.34;;;7.31;62.88
47280;BME280;34064;44.942;0.008;2024-02-28T08:13:39;99883.78;;;7.39;62.82
47280;BME280;34064;44.942;0.008;2024-02-28T08:16:06;99879.13;;;7.44;62.76
47280;BME280;34064;44.942;0.008;2024-02-28T08:18:35;99878.00;;;7.50;62.92
47280;BME280;34064;44.942;0.008;2024-02-28T08:21:01;99876.84;;;7.56;63.18
47280;BME280;34064;44.942;0.008;2024-02-28T08:23:30;99873.69;;;7.67;62.77
47280;BME280;34064;44.942;0.008;2024-02-28T08:25:57;99859.25;;;7.74;62.66
47280;BME280;34064;44.942;0.008;2024-02-28T08:28:23;99860.81;;;7.78;62.80
47280;BME280;34064;44.942;0.008;2024-02-28T08:30:49;99863.94;;;7.86;62.80
47280;BME280;34064;44.942;0.008;2024-02-28T08:33:17;99855.78;;;7.91;62.85
47280;BME280;34064;44.942;0.008;2024-02-28T08:35:43;99857.22;;;7.98;62.71
47280;BME280;34064;44.942;0.008;2024-02-28T08:38:09;99870.00;;;8.07;62.49
47280;BME280;34064;44.942;0.008;2024-02-28T08:40:36;99869.69;;;8.14;62.56
47280;BME280;34064;44.942;0.008;2024-02-28T08:43:03;99859.56;;;8.22;62.70
47280;BME280;34064;44.942;0.008;2024-02-28T08:45:29;99854.88;;;8.27;62.63
47280;BME280;34064;44.942;0.008;2024-02-28T08:47:55;99858.03;;;8.35;62.59
47280;BME280;34064;44.942;0.008;2024-02-28T08:50:23;99866.25;;;8.47;62.35
47280;BME280;34064;44.942;0.008;2024-02-28T08:52:50;99869.63;;;8.50;62.28
47280;BME280;34064;44.942;0.008;2024-02-28T08:55:16;99864.75;;;8.60;62.53
47280;BME280;34064;44.942;0.008;2024-02-28T08:57:45;99866.91;;;8.69;61.99
47280;BME280;34064;44.942;0.008;2024-02-28T09:00:12;99866.75;;;8.72;62.21
47280;BME280;34064;44.942;0.008;2024-02-28T09:02:38;99866.34;;;8.80;61.93
47280;BME280;34064;44.942;0.008;2024-02-28T09:05:05;99853.47;;;8.90;61.82
47280;BME280;34064;44.942;0.008;2024-02-28T09:07:32;99858.28;;;8.99;61.84
47280;BME280;34064;44.942;0.008;2024-02-28T09:09:58;99858.88;;;9.04;61.72
47280;BME280;34064;44.942;0.008;2024-02-28T09:12:24;99853.28;;;9.11;61.81
47280;BME280;34064;44.942;0.008;2024-02-28T09:14:51;99853.72;;;9.19;61.68
47280;BME280;34064;44.942;0.008;2024-02-28T09:17:22;99851.59;;;9.26;61.67
47280;BME280;34064;44.942;0.008;2024-02-28T09:19:48;99855.53;;;9.34;61.65
47280;BME280;34064;44.942;0.008;2024-02-28T09:22:15;99855.19;;;9.41;61.50
47280;BME280;34064;44.942;0.008;2024-02-28T09:24:43;99850.22;;;9.50;61.31
47280;BME280;34064;44.942;0.008;2024-02-28T09:27:09;99843.91;;;9.53;60.94
47280;BME280;34064;44.942;0.008;2024-02-28T09:29:35;99840.63;;;9.64;61.07
47280;BME280;34064;44.942;0.008;2024-02-28T09:32:02;99848.00;;;9.75;60.54
47280;BME280;34064;44.942;0.008;2024-02-28T09:34:28;99844.81;;;9.84;60.60
47280;BME280;34064;44.942;0.008;2024-02-28T09:36:54;99850.56;;;9.92;60.53
47280;BME280;34064;44.942;0.008;2024-02-28T09:39:21;99830.34;;;10.06;60.60
47280;BME280;34064;44.942;0.008;2024-02-28T09:41:50;99822.09;;;10.10;60.30
47280;BME280;34064;44.942;0.008;2024-02-28T09:44:17;99821.19;;;10.26;60.13
47280;BME280;34064;44.942;0.008;2024-02-28T09:46:44;99823.41;;;10.34;59.82
47280;BME280;34064;44.942;0.008;2024-02-28T09:49:11;99822.19;;;10.39;59.35
47280;BME280;34064;44.942;0.008;2024-02-28T09:51:37;99816.13;;;10.52;59.42
47280;BME280;34064;44.942;0.008;2024-02-28T09:54:04;99804.28;;;10.57;59.70
47280;BME280;34064;44.942;0.008;2024-02-28T09:56:31;99801.84;;;10.69;59.07
47280;BME280;34064;44.942;0.008;2024-02-28T09:58:58;99801.66;;;10.72;59.13
47280;BME280;34064;44.942;0.008;2024-02-28T10:01:26;99794.25;;;10.77;59.01
47280;BME280;34064;44.942;0.008;2024-02-28T10:03:54;99788.66;;;10.82;58.77
47280;BME280;34064;44.942;0.008;2024-02-28T10:06:21;99784.00;;;10.85;58.66
47280;BME280;34064;44.942;0.008;2024-02-28T10:08:47;99779.88;;;11.08;56.84
47280;BME280;34064;44.942;0.008;2024-02-28T10:11:23;99765.34;;;11.14;56.36
47280;BME280;34064;44.942;0.008;2024-02-28T10:13:52;99775.53;;;11.07;57.49
47280;BME280;34064;44.942;0.008;2024-02-28T10:16:18;99773.16;;;11.17;57.55
47280;BME280;34064;44.942;0.008;2024-02-28T10:18:45;99769.91;;;11.27;57.09
47280;BME280;34064;44.942;0.008;2024-02-28T10:21:15;99769.09;;;11.39;56.83
47280;BME280;34064;44.942;0.008;2024-02-28T10:23:42;99765.75;;;11.50;56.41
47280;BME280;34064;44.942;0.008;2024-02-28T10:26:12;99757.53;;;11.53;56.81
47280;BME280;34064;44.942;0.008;2024-02-28T10:28:41;99759.91;;;11.58;56.73
47280;BME280;34064;44.942;0.008;2024-02-28T10:31:10;99759.88;;;11.72;55.63
47280;BME280;34064;44.942;0.008;2024-02-28T10:33:36;99750.50;;;11.79;54.83
47280;BME280;34064;44.942;0.008;2024-02-28T10:36:04;99758.94;;;11.86;54.92
47280;BME280;34064;44.942;0.008;2024-02-28T10:38:31;99751.59;;;11.90;54.26
47280;BME280;34064;44.942;0.008;2024-02-28T10:41:02;99755.41;;;11.85;52.89
47280;BME280;34064;44.942;0.008;2024-02-28T10:43:29;99753.31;;;11.91;53.19
47280;BME280;34064;44.942;0.008;2024-02-28T10:45:59;99754.81;;;11.95;53.86
47280;BME280;34064;44.942;0.008;2024-02-28T10:48:27;99757.84;;;12.03;53.52
47280;BME280;34064;44.942;0.008;2024-02-28T10:50:54;99740.38;;;12.25;51.60
47280;BME280;34064;44.942;0.008;2024-02-28T10:53:22;99740.19;;;12.28;51.61
47280;BME280;34064;44.942;0.008;2024-02-28T10:55:56;99743.59;;;12.30;50.98
47280;BME280;34064;44.942;0.008;2024-02-28T10:58:27;99737.84;;;12.36;50.45
47280;BME280;34064;44.942;0.008;2024-02-28T11:00:56;99731.34;;;12.40;50.91
47280;BME280;34064;44.942;0.008;2024-02-28T11:03:23;99725.69;;;12.58;49.50
47280;BME280;34064;44.942;0.008;2024-02-28T11:05:49;99724.00;;;12.57;49.80
47280;BME280;34064;44.942;0.008;2024-02-28T11:08:23;99715.22;;;12.68;49.86
47280;BME280;34064;44.942;0.008;2024-02-28T11:11:03;99717.34;;;12.75;48.29
47280;BME280;34064;44.942;0.008;2024-02-28T11:13:34;99710.09;;;12.77;49.14
47280;BME280;34064;44.942;0.008;2024-02-28T11:16:10;99705.81;;;12.88;48.51
47280;BME280;34064;44.942;0.008;2024-02-28T11:18:47;99705.38;;;12.94;47.21
47280;BME280;34064;44.942;0.008;2024-02-28T11:21:17;99705.38;;;12.94;47.01
47280;BME280;34064;44.942;0.008;2024-02-28T11:23:46;99697.19;;;13.08;47.01
47280;BME280;34064;44.942;0.008;2024-02-28T11:26:14;99697.19;;;13.08;47.37
47280;BME280;34064;44.942;0.008;2024-02-28T11:28:40;99687.81;;;13.16;46.92
47280;BME280;34064;44.942;0.008;2024-02-28T11:31:07;99695.88;;;13.27;47.08
47280;BME280;34064;44.942;0.008;2024-02-28T11:33:34;99689.47;;;13.30;47.06
47280;BME280;34064;44.942;0.008;2024-02-28T11:36:01;99686.44;;;13.34;47.47
47280;BME280;34064;44.942;0.008;2024-02-28T11:38:29;99689.22;;;13.46;47.85
47280;BME280;34064;44.942;0.008;2024-02-28T11:40:55;99674.19;;;13.56;48.12
47280;BME280;34064;44.942;0.008;2024-02-28T11:43:22;99666.72;;;13.72;47.16
47280;BME280;34064;44.942;0.008;2024-02-28T11:45:49;99654.63;;;13.80;46.64
47280;BME280;34064;44.942;0.008;2024-02-28T11:48:16;99659.34;;;13.76;46.96
47280;BME280;34064;44.942;0.008;2024-02-28T11:50:43;99652.41;;;13.85;46.75
47280;BME280;34064;44.942;0.008;2024-02-28T11:53:09;99645.44;;;14.07;45.56
47280;BME280;34064;44.942;0.008;2024-02-28T11:55:36;99646.75;;;14.01;46.04
47280;BME280;34064;44.942;0.008;2024-02-28T11:58:08;99644.22;;;14.11;46.03
47280;BME280;34064;44.942;0.008;2024-02-28T12:00:45;99631.59;;;14.24;44.24
47280;BME280;34064;44.942;0.008;2024-02-28T12:03:11;99639.75;;;14.23;45.12
47280;BME280;34064;44.942;0.008;2024-02-28T12:05:39;99619.06;;;14.36;43.97
47280;BME280;34064;44.942;0.008;2024-02-28T12:08:06;99625.06;;;14.40;44.44
47280;BME280;34064;44.942;0.008;2024-02-28T12:10:33;99624.06;;;14.52;43.28
47280;BME280;34064;44.942;0.008;2024-02-28T12:13:00;99617.63;;;14.55;43.42
47280;BME280;34064;44.942;0.008;2024-02-28T12:15:29;99614.31;;;14.62;42.30
47280;BME280;34064;44.942;0.008;2024-02-28T12:17:56;99610.19;;;14.70;42.20
47280;BME280;34064;44.942;0.008;2024-02-28T12:20:24;99612.50;;;14.74;42.52
47280;BME280;34064;44.942;0.008;2024-02-28T12:22:50;99610.19;;;14.81;41.92
47280;BME280;34064;44.942;0.008;2024-02-28T12:25:17;99613.59;;;14.83;41.18
47280;BME280;34064;44.942;0.008;2024-02-28T12:27:43;99608.97;;;14.85;40.63
47280;BME280;34064;44.942;0.008;2024-02-28T12:30:10;99599.09;;;14.86;41.42
47280;BME280;34064;44.942;0.008;2024-02-28T12:32:36;99592.41;;;14.91;40.93
47280;BME280;34064;44.942;0.008;2024-02-28T12:35:03;99587.66;;;14.95;40.85
47280;BME280;34064;44.942;0.008;2024-02-28T12:37:30;99590.22;;;14.96;39.68
47280;BME280;34064;44.942;0.008;2024-02-28T12:39:56;99581.81;;;15.01;39.71
47280;BME280;34064;44.942;0.008;2024-02-28T12:42:22;99584.22;;;15.04;40.99
47280;BME280;34064;44.942;0.008;2024-02-28T12:44:49;99585.00;;;15.16;40.61
47280;BME280;34064;44.942;0.008;2024-02-28T12:47:15;99576.00;;;15.17;40.57
47280;BME280;34064;44.942;0.008;2024-02-28T12:49:42;99570.75;;;15.27;37.80
47280;BME280;34064;44.942;0.008;2024-02-28T12:52:08;99572.69;;;15.25;39.88
47280;BME280;34064;44.942;0.008;2024-02-28T12:54:35;99564.47;;;15.38;39.91
47280;BME280;34064;44.942;0.008;2024-02-28T12:57:01;99558.41;;;15.36;40.04
47280;BME280;34064;44.942;0.008;2024-02-28T12:59:31;99567.63;;;15.43;40.56
47280;BME280;34064;44.942;0.008;2024-02-28T13:01:57;99560.53;;;15.53;39.21
47280;BME280;34064;44.942;0.008;2024-02-28T13:04:23;99565.19;;;15.61;40.56
47280;BME280;34064;44.942;0.008;2024-02-28T13:06:51;99555.25;;;15.73;39.90